Time;durP1;ratioP1;P1;durP2;ratioP2;P2;SDS_P1;SDS_P2;PMS_P1;PMS_P2;Temp;Humidity;BMP_temperature;BMP_pressure;BME280_temperature;BME280_humidity;BME280_pressure;Samples;Min_cycle;Max_cycle;Signal;HPM_P1;HPM_P2
2022/02/21 00:01:20;;;;;;;9.90;6.30;;;;;;;13.49;46.95;95165.63;4952202;29;20447;-66
2022/02/21 00:03:47;;;;;;;8.50;6.30;;;;;;;13.78;46.41;95160.53;4952028;29;20451;-69
2022/02/21 00:06:15;;;;;;;10.00;6.23;;;;;;;13.41;46.73;95160.13;4952720;29;20432;-67
2022/02/21 00:08:42;;;;;;;11.37;6.90;;;;;;;13.49;46.85;95156.94;4950494;29;20442;-68
2022/02/21 00:11:09;;;;;;;10.47;6.50;;;;;;;13.41;47.10;95168.03;4950317;29;20451;-68
2022/02/21 00:13:36;;;;;;;12.10;7.13;;;;;;;13.50;46.73;95156.69;4949530;29;20475;-66
2022/02/21 00:16:03;;;;;;;9.63;6.43;;;;;;;13.66;47.05;95166.13;4950365;29;20474;-69
2022/02/21 00:18:29;;;;;;;8.13;6.53;;;;;;;13.07;47.03;95165.94;4949365;29;20962;-66
2022/02/21 00:20:56;;;;;;;10.87;6.70;;;;;;;13.18;47.40;95153.56;4952649;28;20490;-67
2022/02/21 00:23:23;;;;;;;9.43;6.70;;;;;;;13.28;47.51;95165.94;4954317;29;20442;-67
2022/02/21 00:25:50;;;;;;;9.57;6.87;;;;;;;13.29;47.16;95167.50;4954624;29;20526;-67
2022/02/21 00:28:17;;;;;;;9.50;6.67;;;;;;;13.29;46.78;95164.88;4953898;29;20446;-67
2022/02/21 00:30:43;;;;;;;11.53;7.30;;;;;;;13.41;47.20;95160.13;4953127;29;20443;-68
2022/02/21 00:33:10;;;;;;;9.80;7.03;;;;;;;13.06;47.67;95164.34;4936789;29;20475;-67
2022/02/21 00:35:37;;;;;;;10.47;7.80;;;;;;;12.97;47.87;95155.38;4953517;29;20558;-67
2022/02/21 00:38:04;;;;;;;10.27;7.30;;;;;;;13.09;47.31;95148.06;4954293;29;20470;-70
2022/02/21 00:40:31;;;;;;;10.23;7.20;;;;;;;12.74;48.20;95134.88;4953835;29;20528;-68
2022/02/21 00:42:58;;;;;;;9.73;7.07;;;;;;;12.87;48.39;95139.63;4954083;29;20465;-69
2022/02/21 00:45:25;;;;;;;12.20;7.10;;;;;;;12.57;48.68;95134.31;4953592;29;21021;-69
2022/02/21 00:47:52;;;;;;;11.20;6.87;;;;;;;12.53;49.08;95133.28;4956958;29;20443;-68
2022/02/21 00:50:20;;;;;;;11.77;7.37;;;;;;;12.67;48.68;95141.44;4954351;29;20520;-67
2022/02/21 00:52:46;;;;;;;9.73;7.87;;;;;;;12.86;48.43;95138.06;4953739;29;20544;-68
2022/02/21 00:55:13;;;;;;;10.30;7.40;;;;;;;12.83;48.37;95133.28;4953785;29;20491;-69
2022/02/21 00:57:40;;;;;;;12.07;7.67;;;;;;;12.74;48.51;95129.63;4954037;29;20539;-67
2022/02/21 01:00:07;;;;;;;9.77;7.20;;;;;;;13.25;47.36;95122.50;4953516;29;20446;-68
2022/02/21 01:02:34;;;;;;;12.13;7.27;;;;;;;13.30;46.76;95112.00;4953863;29;20494;-67
2022/02/21 01:05:02;;;;;;;9.23;6.77;;;;;;;13.40;46.84;95111.94;4953211;29;20452;-71
2022/02/21 01:07:28;;;;;;;10.67;7.37;;;;;;;13.48;47.04;95108.78;4954052;29;20854;-68
2022/02/21 01:09:55;;;;;;;11.40;6.90;;;;;;;13.51;46.38;95102.97;4953587;29;20821;-67
2022/02/21 01:12:22;;;;;;;10.67;7.00;;;;;;;13.20;46.71;95117.25;4952839;29;20490;-69
2022/02/21 01:14:51;;;;;;;10.60;7.60;;;;;;;12.77;47.78;95117.78;4952742;29;20542;-67
2022/02/21 01:17:21;;;;;;;11.83;7.33;;;;;;;12.69;48.16;95105.97;4953234;29;20970;-69
2022/02/21 01:19:50;;;;;;;11.77;7.20;;;;;;;12.31;48.93;95103.03;4952919;29;20502;-68
2022/02/21 01:22:17;;;;;;;12.17;7.87;;;;;;;12.31;49.17;95103.03;4936279;29;20515;-67
2022/02/21 01:24:44;;;;;;;11.17;7.93;;;;;;;12.28;48.72;95106.94;4952732;29;20444;-68
2022/02/21 01:27:14;;;;;;;11.93;7.43;;;;;;;12.30;48.50;95099.59;4952797;29;20534;-68
2022/02/21 01:29:41;;;;;;;10.73;7.23;;;;;;;12.30;48.43;95094.34;4952689;29;20526;-67
2022/02/21 01:32:09;;;;;;;10.63;7.83;;;;;;;12.48;48.32;95099.09;4951682;28;20574;-69
2022/02/21 01:34:36;;;;;;;9.47;7.43;;;;;;;12.38;48.26;95109.59;4953044;29;20543;-68
2022/02/21 01:37:03;;;;;;;10.90;7.30;;;;;;;12.24;48.51;95103.28;4952944;29;20444;-69
2022/02/21 01:39:30;;;;;;;9.67;7.80;;;;;;;12.48;48.24;95104.34;4952262;29;21280;-68
2022/02/21 01:41:56;;;;;;;10.37;7.73;;;;;;;12.30;48.33;95106.72;4952883;29;20483;-68
2022/02/21 01:44:36;;;;;;;10.73;7.93;;;;;;;12.57;48.06;95108.03;4951852;29;20463;-68
2022/02/21 01:47:05;;;;;;;11.43;7.30;;;;;;;12.68;48.11;95109.63;4952577;29;20994;-68
2022/02/21 01:49:33;;;;;;;10.20;7.20;;;;;;;12.73;47.50;95101.75;4952696;29;20440;-67
2022/02/21 01:52:01;;;;;;;10.87;7.90;;;;;;;12.36;48.68;95087.25;4952376;29;20483;-68
2022/02/21 01:54:28;;;;;;;12.30;7.60;;;;;;;11.91;50.01;95093.22;4951774;29;20479;-69
2022/02/21 01:56:56;;;;;;;12.77;7.30;;;;;;;12.21;48.94;95088.81;4935279;29;20535;-67
2022/02/21 01:59:24;;;;;;;10.50;7.23;;;;;;;11.33;50.88;95075.13;4951769;29;20876;-67
2022/02/21 02:01:51;;;;;;;10.20;6.93;;;;;;;11.22;50.94;95069.81;4952041;29;20996;-67
2022/02/21 02:04:19;;;;;;;9.77;6.90;;;;;;;11.68;50.58;95072.66;4952193;29;20852;-67
2022/02/21 02:06:48;;;;;;;10.30;7.17;;;;;;;12.26;49.20;95063.63;4952250;29;20436;-68
2022/02/21 02:09:15;;;;;;;13.50;7.47;;;;;;;11.80;49.82;95065.34;4951860;29;20513;-69
2022/02/21 02:11:44;;;;;;;9.33;7.37;;;;;;;11.76;50.35;95064.28;4952514;29;20455;-67
2022/02/21 02:14:35;;;;;;;10.97;7.53;;;;;;;11.52;50.54;95048.16;4951346;29;20487;-67
2022/02/21 02:17:08;;;;;;;11.83;8.03;;;;;;;11.51;50.73;95036.09;4952178;29;20444;-68
2022/02/21 02:19:36;;;;;;;10.83;7.73;;;;;;;11.71;50.49;95056.41;4951285;29;20447;-67
2022/02/21 02:22:12;;;;;;;11.97;8.10;;;;;;;12.24;49.33;95041.00;4951613;29;20444;-67
2022/02/21 02:24:41;;;;;;;10.97;7.33;;;;;;;12.48;48.43;95040.50;4951755;29;20444;-68
2022/02/21 02:27:09;;;;;;;12.53;8.07;;;;;;;12.14;48.97;95037.59;4951667;29;20447;-68
2022/02/21 02:29:37;;;;;;;11.13;8.07;;;;;;;12.01;49.51;95038.88;4951124;29;21074;-69
2022/02/21 02:32:06;;;;;;;11.27;8.07;;;;;;;11.66;50.83;95040.66;4951879;29;20476;-69
2022/02/21 02:34:33;;;;;;;13.07;8.23;;;;;;;12.11;49.12;95024.97;4951496;29;20822;-70
2022/02/21 02:37:00;;;;;;;10.73;8.30;;;;;;;12.24;48.65;95024.47;4934493;29;20474;-67
2022/02/21 02:39:27;;;;;;;9.87;8.23;;;;;;;12.11;48.33;95031.03;4951653;29;21290;-68
2022/02/21 02:41:54;;;;;;;12.00;7.97;;;;;;;11.36;49.61;95032.63;4951932;29;20440;-67
2022/02/21 02:44:21;;;;;;;12.30;8.80;;;;;;;11.22;50.01;95040.94;4952883;28;20443;-67
2022/02/21 02:46:49;;;;;;;12.23;8.77;;;;;;;11.13;50.52;95037.22;4957884;29;20463;-68
2022/02/21 02:49:16;;;;;;;10.57;8.07;;;;;;;11.14;50.52;95041.44;4952000;29;20451;-71
2022/02/21 02:51:43;;;;;;;14.33;9.60;;;;;;;11.13;50.67;95047.72;4951395;29;20466;-69
2022/02/21 02:54:11;;;;;;;15.40;10.40;;;;;;;11.12;50.62;95038.28;4951330;29;20487;-68
2022/02/21 02:56:42;;;;;;;14.73;10.37;;;;;;;11.14;50.80;95040.66;4951471;29;20436;-68
2022/02/21 02:59:09;;;;;;;19.87;11.90;;;;;;;11.12;50.95;95046.16;4951644;29;20439;-67
2022/02/21 03:01:39;;;;;;;21.83;12.17;;;;;;;11.05;51.73;95048.22;4950348;29;20451;-68
2022/02/21 03:04:06;;;;;;;15.13;10.73;;;;;;;11.21;51.28;95041.22;4951212;29;20975;-68
2022/02/21 03:06:33;;;;;;;15.90;10.13;;;;;;;11.21;50.98;95052.50;4951710;29;20479;-70
2022/02/21 03:09:00;;;;;;;16.03;9.97;;;;;;;11.00;50.74;95047.41;4951059;29;20518;-67
2022/02/21 03:11:46;;;;;;;14.83;10.80;;;;;;;10.83;51.75;95052.81;4951226;29;20728;-67
2022/02/21 03:14:13;;;;;;;15.23;9.90;;;;;;;10.63;52.54;95054.50;4950236;29;20495;-69
2022/02/21 03:16:40;;;;;;;14.10;9.73;;;;;;;10.70;51.75;95050.63;4950978;29;20926;-68
2022/02/21 03:19:07;;;;;;;14.67;9.83;;;;;;;10.72;51.54;95048.53;4951255;29;20452;-66
2022/02/21 03:21:34;;;;;;;14.30;10.00;;;;;;;10.89;51.28;95054.41;4950663;29;21008;-68
2022/02/21 03:24:01;;;;;;;17.17;11.57;;;;;;;10.88;51.79;95039.72;4950676;29;20446;-67
2022/02/21 03:26:28;;;;;;;16.90;10.33;;;;;;;10.87;51.93;95040.78;4951595;29;20498;-67
2022/02/21 03:28:54;;;;;;;16.00;10.60;;;;;;;10.78;51.97;95021.31;4950641;29;20475;-68
2022/02/21 03:31:22;;;;;;;14.10;10.03;;;;;;;10.51;52.71;95036.31;4951481;29;20443;-67
2022/02/21 03:33:49;;;;;;;14.10;9.90;;;;;;;10.42;52.96;95027.34;4950480;29;21089;-67
2022/02/21 03:36:16;;;;;;;13.43;10.17;;;;;;;10.56;52.61;95022.47;4950499;29;20451;-69
2022/02/21 03:38:43;;;;;;;14.77;10.07;;;;;;;10.41;52.62;95025.78;4933234;29;20443;-66
2022/02/21 03:41:10;;;;;;;15.70;9.80;;;;;;;10.78;51.71;95018.72;4950382;29;20431;-68
2022/02/21 03:43:37;;;;;;;15.17;9.70;;;;;;;10.91;50.94;95013.00;4950643;29;20993;-68
2022/02/21 03:46:05;;;;;;;15.67;9.27;;;;;;;10.80;51.28;95024.47;4953455;29;21061;-68
2022/02/21 03:48:31;;;;;;;12.00;9.47;;;;;;;10.63;52.36;95029.09;4952685;29;20443;-68
2022/02/21 03:50:58;;;;;;;11.97;8.97;;;;;;;10.72;51.99;95017.09;4952179;29;20456;-68
2022/02/21 03:53:25;;;;;;;12.15;8.90;;;;;;;10.85;51.30;95021.09;4950333;29;20515;-70
2022/02/21 03:55:55;;;;;;;13.37;9.50;;;;;;;10.93;50.81;95024.03;4953127;28;20215;-67
2022/02/21 03:58:23;;;;;;;15.17;9.37;;;;;;;10.91;50.96;95023.47;4954932;29;20799;-69
2022/02/21 04:00:50;;;;;;;12.57;8.70;;;;;;;10.97;50.74;95009.38;4954408;29;20436;-67
2022/02/21 04:03:17;;;;;;;12.33;9.43;;;;;;;11.10;50.99;95014.16;4937656;29;20874;-69
2022/02/21 04:05:44;;;;;;;13.73;9.37;;;;;;;11.07;50.53;95009.44;4954411;29;20781;-67
2022/02/21 04:08:11;;;;;;;12.90;9.47;;;;;;;10.91;51.01;95014.84;4954955;29;20993;-67
2022/02/21 04:10:38;;;;;;;18.83;11.93;;;;;;;11.10;50.87;95003.66;4953971;29;20447;-66
2022/02/21 04:13:04;;;;;;;19.53;12.50;;;;;;;11.12;50.99;95000.78;4954000;29;20483;-68
2022/02/21 04:15:31;;;;;;;22.93;15.23;;;;;;;11.13;50.61;94995.28;4953735;29;20439;-67
2022/02/21 04:17:58;;;;;;;23.67;15.50;;;;;;;10.94;51.04;94994.16;4954161;29;21547;-66
2022/02/21 04:20:30;;;;;;;22.50;15.53;;;;;;;10.93;51.01;94997.81;4953473;29;20446;-68
2022/02/21 04:22:57;;;;;;;21.60;14.77;;;;;;;10.92;51.41;95006.72;4954473;29;20446;-70
2022/02/21 04:25:24;;;;;;;25.93;16.77;;;;;;;10.56;52.08;94986.59;4953585;29;20562;-67
2022/02/21 04:27:53;;;;;;;23.00;15.50;;;;;;;10.78;51.86;94989.88;4953610;29;20534;-67
2022/02/21 04:30:23;;;;;;;24.23;16.07;;;;;;;10.72;51.43;94992.72;4953671;29;20443;-68
2022/02/21 04:32:51;;;;;;;23.33;16.10;;;;;;;10.70;51.17;94990.34;4953796;29;20475;-68
2022/02/21 04:35:20;;;;;;;21.03;15.03;;;;;;;10.98;50.83;94995.19;4953683;29;20530;-68
2022/02/21 04:37:48;;;;;;;20.53;14.63;;;;;;;10.77;50.93;94972.56;4957370;29;20447;-68
2022/02/21 04:40:18;;;;;;;21.77;14.73;;;;;;;10.95;50.70;94984.44;4953552;29;20886;-69
2022/02/21 04:42:48;;;;;;;21.20;14.20;;;;;;;10.95;51.21;94985.22;4953930;29;20986;-67
2022/02/21 04:45:15;;;;;;;23.07;14.43;;;;;;;10.96;50.23;94980.78;4953874;29;20473;-68
2022/02/21 04:47:42;;;;;;;24.23;14.83;;;;;;;10.91;50.28;94972.91;4953926;29;20475;-68
2022/02/21 04:50:10;;;;;;;19.40;14.27;;;;;;;10.75;51.05;94984.31;4952330;29;20454;-67
2022/02/21 04:52:38;;;;;;;19.93;14.57;;;;;;;10.69;51.14;94975.66;4953933;29;20451;-67
2022/02/21 04:55:06;;;;;;;19.57;14.77;;;;;;;10.55;52.13;94985.00;4953398;29;20428;-69
2022/02/21 04:57:33;;;;;;;22.87;15.60;;;;;;;10.51;51.42;94970.06;4953878;29;20447;-68
2022/02/21 05:00:01;;;;;;;22.53;15.03;;;;;;;10.58;52.25;94962.75;4952698;29;20444;-68
2022/02/21 05:02:28;;;;;;;20.80;15.83;;;;;;;10.41;52.47;94968.16;4953508;28;20451;-69
2022/02/21 05:04:55;;;;;;;25.13;17.00;;;;;;;10.37;52.48;94972.31;4953017;29;20451;-69
2022/02/21 05:07:22;;;;;;;20.97;15.70;;;;;;;10.51;51.55;94962.19;4952254;28;20440;-68
2022/02/21 05:09:49;;;;;;;23.17;15.53;;;;;;;10.67;51.45;94959.41;4952591;29;20498;-68
2022/02/21 05:12:16;;;;;;;22.87;15.63;;;;;;;10.63;52.04;94965.41;4953700;29;20576;-69
2022/02/21 05:14:43;;;;;;;23.50;15.83;;;;;;;10.59;51.85;94954.63;4952465;29;20499;-69
2022/02/21 05:17:10;;;;;;;21.33;15.33;;;;;;;10.58;51.78;94960.94;4953044;29;20448;-67
2022/02/21 05:19:36;;;;;;;22.33;15.77;;;;;;;10.49;52.15;94959.03;4952220;29;20429;-69
2022/02/21 05:22:04;;;;;;;26.70;18.87;;;;;;;10.48;52.03;94973.16;4953281;29;20203;-67
2022/02/21 05:24:31;;;;;;;28.70;18.73;;;;;;;10.61;51.69;94968.28;4951764;28;20455;-68
2022/02/21 05:26:57;;;;;;;33.83;21.77;;;;;;;10.73;51.73;94942.66;4961866;28;20450;-68
2022/02/21 05:29:24;;;;;;;37.50;24.47;;;;;;;10.45;52.14;94956.13;4950927;28;20444;-69
2022/02/21 05:31:51;;;;;;;34.23;25.33;;;;;;;10.63;51.89;94968.81;4952674;29;20526;-68
2022/02/21 05:34:18;;;;;;;35.13;24.73;;;;;;;10.57;52.19;94956.72;4952014;29;20842;-69
2022/02/21 05:36:45;;;;;;;34.57;24.93;;;;;;;10.64;51.67;94952.03;4952203;28;20440;-70
2022/02/21 05:39:12;;;;;;;35.30;25.27;;;;;;;10.50;52.02;94955.34;4951323;29;20423;-69
2022/02/21 05:41:39;;;;;;;38.40;23.43;;;;;;;10.71;52.32;94949.97;4952645;29;20510;-71
2022/02/21 05:44:06;;;;;;;43.28;26.58;;;;;;;10.60;52.40;94956.19;4952136;29;20424;-67
2022/02/21 05:46:34;;;;;;;44.70;29.33;;;;;;;10.60;52.66;94956.19;4953484;29;20300;-68
2022/02/21 05:49:01;;;;;;;155.37;110.60;;;;;;;10.44;53.27;94951.91;4954746;29;20447;-68
2022/02/21 05:51:27;;;;;;;45.50;29.73;;;;;;;10.91;53.50;94947.44;4952870;29;21026;-68
2022/02/21 05:53:54;;;;;;;43.20;26.50;;;;;;;10.82;53.14;94927.25;4952027;29;20475;-68
2022/02/21 05:56:21;;;;;;;44.50;25.80;;;;;;;11.08;52.49;94955.94;4953082;29;20502;-70
2022/02/21 05:58:48;;;;;;;37.10;23.10;;;;;;;11.17;52.05;94954.38;4952553;29;20447;-69
2022/02/21 06:01:15;;;;;;;38.63;23.47;;;;;;;11.18;51.56;94953.31;4951603;29;20970;-68
2022/02/21 06:03:42;;;;;;;34.80;23.10;;;;;;;11.21;51.96;94942.34;4952507;29;20465;-68
2022/02/21 06:06:09;;;;;;;39.43;23.50;;;;;;;11.37;51.50;94942.41;4952750;29;20796;-68
2022/02/21 06:08:36;;;;;;;35.43;23.37;;;;;;;11.28;51.61;94936.84;4951820;28;20969;-69
2022/02/21 06:11:04;;;;;;;39.93;23.80;;;;;;;11.46;51.86;94935.59;4952230;29;21056;-70
2022/02/21 06:13:31;;;;;;;29.93;19.43;;;;;;;11.35;51.76;94928.75;4951274;28;20483;-71
2022/02/21 06:15:58;;;;;;;29.90;18.80;;;;;;;11.51;51.28;94919.84;4952302;29;20431;-70
2022/02/21 06:18:25;;;;;;;30.90;18.73;;;;;;;11.59;51.13;94896.50;4951697;28;20492;-70
2022/02/21 06:20:52;;;;;;;30.30;18.40;;;;;;;11.75;50.60;94915.72;4952080;29;20451;-68
2022/02/21 06:23:20;;;;;;;25.77;16.97;;;;;;;11.83;50.95;94918.59;4952619;29;20443;-72
2022/02/21 06:25:47;;;;;;;30.60;20.60;;;;;;;11.82;50.49;94916.25;4951824;29;20978;-68
2022/02/21 06:28:14;;;;;;;32.77;21.27;;;;;;;11.82;50.59;94900.50;4952679;29;20447;-66
2022/02/21 06:30:41;;;;;;;26.33;17.80;;;;;;;11.95;50.59;94899.97;4954887;29;20874;-68
2022/02/21 06:33:08;;;;;;;25.77;15.67;;;;;;;11.76;50.56;94893.66;4952728;29;21010;-68
2022/02/21 06:35:35;;;;;;;24.07;15.70;;;;;;;11.90;50.71;94897.31;4949543;29;20447;-68
2022/02/21 06:38:04;;;;;;;24.27;15.30;;;;;;;11.98;50.47;94902.06;4949940;29;20431;-68
2022/02/21 06:40:32;;;;;;;22.00;15.40;;;;;;;12.11;50.02;94896.28;4949648;29;20450;-68
2022/02/21 06:42:59;;;;;;;21.20;14.67;;;;;;;12.23;50.25;94897.56;4950031;29;20462;-66
2022/02/21 06:45:28;;;;;;;21.07;15.23;;;;;;;12.34;50.11;94893.09;4949240;29;20498;-69
2022/02/21 06:47:56;;;;;;;22.57;15.60;;;;;;;11.89;50.84;94893.13;4933178;29;20447;-66
2022/02/21 06:50:24;;;;;;;22.37;15.23;;;;;;;12.29;49.65;94890.47;4950922;29;20435;-69
2022/02/21 06:52:52;;;;;;;27.17;18.67;;;;;;;12.36;49.18;94884.94;4951979;29;21049;-69
2022/02/21 06:55:22;;;;;;;35.13;21.03;;;;;;;12.41;49.53;94887.56;4951377;29;20510;-69
2022/02/21 06:57:51;;;;;;;39.93;20.77;;;;;;;12.59;49.50;94874.63;4951558;29;20458;-67
2022/02/21 07:00:18;;;;;;;28.53;19.63;;;;;;;12.54;49.70;94877.28;4933850;29;20451;-69
2022/02/21 07:02:46;;;;;;;29.30;18.57;;;;;;;12.88;49.05;94867.66;4951891;29;20432;-69
2022/02/21 07:05:13;;;;;;;22.50;16.27;;;;;;;12.88;48.75;94875.56;4951321;29;20447;-68
2022/02/21 07:07:41;;;;;;;22.27;16.53;;;;;;;12.97;48.38;94868.69;4951520;29;20448;-68
2022/02/21 07:10:09;;;;;;;23.33;15.50;;;;;;;12.83;48.25;94844.03;4950920;29;21128;-68
2022/02/21 07:12:36;;;;;;;21.83;14.63;;;;;;;13.01;48.44;94858.44;4951618;29;20528;-67
2022/02/21 07:15:04;;;;;;;19.93;14.73;;;;;;;13.18;48.52;94859.69;4949727;29;21121;-68
2022/02/21 07:17:41;;;;;;;20.83;14.83;;;;;;;13.31;47.84;94860.91;4951070;29;20462;-68
2022/02/21 07:20:12;;;;;;;21.83;15.50;;;;;;;12.89;47.61;94832.44;4951125;29;20447;-67
2022/02/21 07:22:43;;;;;;;22.87;15.00;;;;;;;12.86;48.11;94833.00;4951548;29;20454;-68
2022/02/21 07:25:11;;;;;;;25.13;15.83;;;;;;;12.89;48.01;94863.22;4950878;29;20457;-70
2022/02/21 07:27:42;;;;;;;24.23;16.63;;;;;;;12.62;48.56;94852.28;4951018;29;20456;-68
2022/02/21 07:30:11;;;;;;;21.40;15.60;;;;;;;12.62;48.32;94847.81;4951743;28;20996;-67
2022/02/21 07:32:38;;;;;;;21.50;15.47;;;;;;;12.40;48.99;94838.69;4955272;29;20441;-70
2022/02/21 07:35:06;;;;;;;22.83;16.70;;;;;;;12.57;49.24;94839.94;4954986;29;20518;-69
2022/02/21 07:37:33;;;;;;;28.73;18.27;;;;;;;12.82;48.35;94839.06;4959719;29;20994;-67
2022/02/21 07:40:00;;;;;;;27.67;17.67;;;;;;;12.89;48.65;94821.94;4958523;29;20973;-68
2022/02/21 07:42:27;;;;;;;30.27;19.00;;;;;;;13.01;48.76;94840.78;4956452;29;21001;-68
2022/02/21 07:44:54;;;;;;;27.53;18.57;;;;;;;13.23;48.70;94833.34;4954768;29;20435;-66
2022/02/21 07:47:21;;;;;;;22.93;15.60;;;;;;;12.87;48.14;94833.75;4955196;29;20443;-67
2022/02/21 07:49:48;;;;;;;25.10;16.63;;;;;;;13.05;48.03;94831.34;4954726;29;20551;-67
2022/02/21 07:52:15;;;;;;;21.50;16.50;;;;;;;13.47;47.56;94824.75;4954941;29;20436;-69
2022/02/21 07:54:42;;;;;;;22.43;14.77;;;;;;;13.44;47.62;94812.13;4954667;29;20493;-68
2022/02/21 07:57:09;;;;;;;20.20;14.20;;;;;;;13.61;46.84;94807.28;4954660;29;20543;-67
2022/02/21 07:59:36;;;;;;;20.07;14.57;;;;;;;13.78;46.88;94803.16;4954729;29;21251;-68
2022/02/21 08:02:03;;;;;;;19.97;15.30;;;;;;;13.92;46.57;94803.31;4954675;29;20454;-68
2022/02/21 08:04:30;;;;;;;22.13;15.93;;;;;;;13.93;46.19;94789.88;4954434;29;20447;-68
2022/02/21 08:06:57;;;;;;;22.77;15.70;;;;;;;14.37;46.16;94794.97;4954691;29;20439;-69
2022/02/21 08:09:24;;;;;;;22.83;16.03;;;;;;;14.42;46.00;94781.72;4954494;29;21021;-69
2022/02/21 08:11:51;;;;;;;25.87;17.00;;;;;;;14.27;45.59;94779.25;4937796;29;20954;-68
2022/02/21 08:14:18;;;;;;;24.03;15.87;;;;;;;14.70;44.79;94775.59;4954111;29;20497;-71
2022/02/21 08:16:45;;;;;;;24.23;15.90;;;;;;;14.78;44.80;94764.41;4954716;29;20531;-66
2022/02/21 08:19:12;;;;;;;20.50;15.63;;;;;;;15.00;44.75;94756.69;4953712;29;20443;-68
2022/02/21 08:21:39;;;;;;;20.47;15.37;;;;;;;14.68;44.74;94764.53;4954864;29;20538;-68
2022/02/21 08:24:06;;;;;;;22.70;14.93;;;;;;;14.38;45.15;94764.91;4956563;29;20530;-67
2022/02/21 08:26:34;;;;;;;23.43;15.57;;;;;;;14.52;44.86;94754.47;4954379;29;20483;-69
2022/02/21 08:29:01;;;;;;;22.40;15.97;;;;;;;14.23;45.60;94762.44;4954053;29;20455;-67
2022/02/21 08:31:29;;;;;;;25.07;16.90;;;;;;;14.12;45.15;94761.72;4954219;29;20436;-65
2022/02/21 08:33:56;;;;;;;25.30;16.43;;;;;;;14.36;45.35;94748.56;4954059;29;20510;-68
2022/02/21 08:36:25;;;;;;;21.43;15.50;;;;;;;14.42;45.49;94739.56;4954369;29;20930;-69
2022/02/21 08:38:53;;;;;;;24.80;16.03;;;;;;;14.34;45.59;94753.38;4953883;29;20435;-69
2022/02/21 08:41:21;;;;;;;24.27;16.20;;;;;;;14.37;45.54;94718.53;4953903;28;20455;-69
2022/02/21 08:43:48;;;;;;;26.70;15.10;;;;;;;14.67;44.64;94731.31;4955740;29;20435;-68
2022/02/21 08:46:16;;;;;;;19.17;12.70;;;;;;;14.69;44.88;94733.69;4957645;29;20431;-69
2022/02/21 08:49:04;;;;;;;18.27;13.30;;;;;;;14.68;43.89;94721.56;4953568;29;20471;-67
2022/02/21 08:51:32;;;;;;;17.53;11.97;;;;;;;15.02;43.74;94696.50;4954078;29;20439;-69
2022/02/21 08:53:58;;;;;;;19.10;13.77;;;;;;;15.29;43.34;94710.91;4936603;29;20872;-69
2022/02/21 08:56:31;;;;;;;20.63;13.53;;;;;;;14.22;44.90;94708.13;4953971;29;20447;-69
2022/02/21 08:58:57;;;;;;;22.63;14.27;;;;;;;14.60;44.80;94699.25;4953557;29;20962;-68
2022/02/21 09:01:24;;;;;;;19.60;14.10;;;;;;;14.62;44.60;94697.09;4954157;29;20439;-71
2022/02/21 09:03:51;;;;;;;19.70;14.50;;;;;;;14.71;44.16;94679.56;4953436;29;20439;-66
2022/02/21 09:06:18;;;;;;;21.43;14.23;;;;;;;14.90;44.61;94698.81;4936724;29;20982;-68
2022/02/21 09:08:45;;;;;;;19.63;15.60;;;;;;;14.80;44.10;94698.16;4952605;29;20451;-65
2022/02/21 09:11:12;;;;;;;23.20;15.20;;;;;;;14.93;43.76;94692.97;4953922;29;20439;-68
2022/02/21 09:13:39;;;;;;;21.03;15.70;;;;;;;14.98;43.93;94684.97;4952836;29;20468;-70
2022/02/21 09:16:07;;;;;;;19.47;14.90;;;;;;;15.29;43.86;94676.56;4953225;29;20439;-68
2022/02/21 09:18:33;;;;;;;21.13;15.10;;;;;;;15.71;42.66;94679.03;4953011;29;20450;-70
2022/02/21 09:21:00;;;;;;;22.53;16.67;;;;;;;15.95;42.37;94676.97;4953917;29;20451;-68
2022/02/21 09:23:27;;;;;;;25.40;16.90;;;;;;;15.90;42.03;94671.78;4935725;29;20461;-68
2022/02/21 09:25:55;;;;;;;23.90;17.93;;;;;;;16.10;41.91;94669.56;4953196;29;20977;-67
2022/02/21 09:28:23;;;;;;;25.03;18.77;;;;;;;16.53;40.43;94651.50;4952940;29;20428;-67
2022/02/21 09:30:53;;;;;;;35.23;21.33;;;;;;;15.97;41.69;94664.25;4953135;29;20510;-68
2022/02/21 09:33:24;;;;;;;34.10;22.63;;;;;;;16.23;41.22;94654.75;4953335;29;20439;-69
2022/02/21 09:35:52;;;;;;;31.17;22.30;;;;;;;16.01;41.15;94654.66;4953181;29;21044;-66
2022/02/21 09:38:19;;;;;;;30.43;21.90;;;;;;;16.64;40.44;94641.50;4952924;29;20439;-69
2022/02/21 09:40:50;;;;;;;27.80;19.20;;;;;;;16.92;39.89;94648.22;4952834;29;20522;-69
2022/02/21 09:43:29;;;;;;;27.53;20.13;;;;;;;16.88;39.99;94642.75;4953373;29;20443;-68
2022/02/21 09:45:58;;;;;;;23.73;16.57;;;;;;;17.43;40.43;94623.94;4952966;29;20450;-68
2022/02/21 09:48:28;;;;;;;21.77;16.50;;;;;;;18.24;38.56;94615.38;4952502;29;20450;-67
2022/02/21 09:50:59;;;;;;;17.63;14.77;;;;;;;18.44;38.24;94620.13;4952954;29;20427;-70
2022/02/21 09:53:28;;;;;;;21.37;14.27;;;;;;;18.31;37.64;94621.00;4951578;28;20510;-71
2022/02/21 09:55:56;;;;;;;18.30;12.73;;;;;;;18.45;37.74;94600.44;4952681;29;20679;-67
2022/02/21 09:58:24;;;;;;;16.90;11.53;;;;;;;18.53;37.54;94602.34;4952184;29;20452;-67
2022/02/21 10:00:52;;;;;;;20.37;12.17;;;;;;;19.29;36.24;94591.97;4952645;29;20439;-67
2022/02/21 10:03:38;;;;;;;20.00;13.00;;;;;;;19.69;35.79;94585.31;4952903;29;20470;-66
2022/02/21 10:06:16;;;;;;;18.20;11.90;;;;;;;19.64;35.43;94588.91;4952906;29;20526;-67
2022/02/21 10:09:07;;;;;;;18.30;13.07;;;;;;;19.23;35.01;94580.72;4951925;29;20514;-70
2022/02/21 10:11:47;;;;;;;17.23;12.33;;;;;;;19.41;35.38;94573.50;4952137;29;20989;-68
2022/02/21 10:14:21;;;;;;;19.03;11.83;;;;;;;19.43;36.33;94566.00;4952373;29;20538;-68
2022/02/21 10:17:01;;;;;;;22.60;13.33;;;;;;;19.77;35.28;94555.22;4954165;29;20445;-70
2022/02/21 10:19:39;;;;;;;20.00;13.60;;;;;;;19.48;34.98;94549.88;4952224;29;20469;-68
2022/02/21 10:22:11;;;;;;;20.83;13.73;;;;;;;19.50;35.62;94545.03;4952555;29;20519;-71
2022/02/21 10:24:41;;;;;;;20.13;14.57;;;;;;;19.02;36.76;94546.09;4935009;29;20534;-67
2022/02/21 10:27:16;;;;;;;24.87;15.77;;;;;;;18.81;35.99;94545.19;4952542;29;20787;-66
2022/02/21 10:29:49;;;;;;;22.53;15.03;;;;;;;19.11;35.63;94533.56;4951661;29;20518;-68
2022/02/21 10:32:21;;;;;;;21.83;15.27;;;;;;;19.30;35.88;94516.47;4952103;29;20453;-66
2022/02/21 10:34:49;;;;;;;18.40;14.73;;;;;;;18.95;36.49;94513.94;4951555;29;20486;-67
2022/02/21 10:37:22;;;;;;;19.50;14.93;;;;;;;19.36;36.88;94501.97;4952278;29;20526;-69
2022/02/21 10:39:49;;;;;;;26.90;15.40;;;;;;;19.68;36.09;94499.44;4951681;29;20434;-65
2022/02/21 10:42:25;;;;;;;23.47;15.60;;;;;;;19.84;36.50;94491.69;4952147;29;20440;-66
2022/02/21 10:44:52;;;;;;;28.37;16.27;;;;;;;19.49;36.13;94469.06;4951750;29;20446;-70
2022/02/21 10:47:20;;;;;;;31.60;17.53;;;;;;;19.76;35.87;94473.91;4951894;29;20439;-67
2022/02/21 10:49:50;;;;;;;38.60;18.27;;;;;;;19.30;36.16;94468.66;4951454;29;20447;-67
2022/02/21 10:52:30;;;;;;;34.87;18.90;;;;;;;19.23;35.97;94471.03;4952388;29;20443;-68
2022/02/21 10:54:58;;;;;;;23.77;18.77;;;;;;;18.99;36.27;94460.97;4950587;29;21021;-69
2022/02/21 10:57:27;;;;;;;24.67;18.17;;;;;;;18.75;36.60;94434.97;4952303;29;20490;-70
2022/02/21 10:59:55;;;;;;;29.73;18.73;;;;;;;19.28;35.97;94452.25;4951469;29;20841;-67
2022/02/21 11:02:23;;;;;;;31.50;20.37;;;;;;;19.72;35.65;94441.88;4951654;29;20446;-69
2022/02/21 11:04:51;;;;;;;35.03;24.43;;;;;;;19.31;35.79;94435.66;4950391;28;20881;-68
2022/02/21 11:07:20;;;;;;;37.23;24.63;;;;;;;19.62;36.23;94425.50;4952369;29;20989;-70
2022/02/21 11:09:48;;;;;;;35.43;23.93;;;;;;;20.04;36.16;94421.78;4951722;29;20438;-68
2022/02/21 11:12:20;;;;;;;35.53;22.47;;;;;;;20.64;35.02;94414.03;4952489;29;20462;-68
2022/02/21 11:14:48;;;;;;;42.77;21.43;;;;;;;20.26;34.62;94408.16;4951228;29;20549;-69
2022/02/21 11:17:16;;;;;;;31.10;19.93;;;;;;;20.75;34.81;94403.75;4950450;29;20997;-68
2022/02/21 11:19:46;;;;;;;28.57;17.43;;;;;;;21.02;34.43;94379.94;4951027;29;20432;-69
2022/02/21 11:22:17;;;;;;;28.20;17.73;;;;;;;20.39;34.51;94383.16;4952190;29;20439;-68
2022/02/21 11:24:50;;;;;;;21.20;14.83;;;;;;;20.16;35.33;94372.06;4952796;29;20444;-69